EAG5516 SBBR-SBEG

Flight info

Callsign EAG5516
Flight time 2h 48m
Altitude 34000
Route UGUGA UM409 UDOMA/N0462F360 UM409 ESMAR DCT IRUMO
Aircraft A320/M-SDE3FGHIRWY/LB1

Departure

Time 2026-04-13 17:41
Airport Presidente Juscelino Kubitschek International Airport (SBBR)

Arrival

Time 2026-04-13 20:29
Airport Eduardo Gomes International Airport (SBEG)
Time Latitude Longitude Altitude Speed Heading
2026-04-13 17:28 -15.86711 -47.91892 3470 ft 0 kts 176°
2026-04-13 17:32 -15.86708 -47.91892 3468 ft 2 kts 176°
2026-04-13 17:32 -15.86690 -47.91893 3469 ft 3 kts 178°
2026-04-13 17:32 -15.86670 -47.91893 3471 ft 3 kts 182°
2026-04-13 17:33 -15.86649 -47.91892 3472 ft 3 kts 189°
2026-04-13 17:33 -15.86630 -47.91887 3471 ft 3 kts 208°
2026-04-13 17:33 -15.86617 -47.91877 3470 ft 2 kts 254°
2026-04-13 17:33 -15.86616 -47.91872 3469 ft 0 kts 266°
2026-04-13 17:36 -15.86617 -47.91890 3469 ft 3 kts 266°
2026-04-13 17:37 -15.86618 -47.91908 3471 ft 2 kts 266°
2026-04-13 17:37 -15.86621 -47.91949 3471 ft 10 kts 266°
2026-04-13 17:37 -15.86628 -47.92069 3472 ft 18 kts 266°
2026-04-13 17:37 -15.86617 -47.92199 3471 ft 17 kts 289°
2026-04-13 17:38 -15.86561 -47.92304 3470 ft 17 kts 303°
2026-04-13 17:38 -15.86530 -47.92457 3468 ft 25 kts 266°
2026-04-13 17:38 -15.86543 -47.92640 3464 ft 26 kts 265°
2026-04-13 17:38 -15.86517 -47.92760 3461 ft 14 kts 333°
2026-04-13 17:39 -15.86450 -47.92772 3460 ft 9 kts 360°
2026-04-13 17:39 -15.86386 -47.92741 3460 ft 11 kts 36°
2026-04-13 17:39 -15.86353 -47.92676 3460 ft 10 kts 85°
2026-04-13 17:39 -15.86352 -47.92667 3461 ft 0 kts 86°
2026-04-13 17:40 -15.86352 -47.92666 3461 ft 1 kts 86°
2026-04-13 17:40 -15.86333 -47.92382 3465 ft 75 kts 86°
2026-04-13 17:40 -15.86284 -47.91617 3464 ft 134 kts 86°
2026-04-13 17:40 -15.86211 -47.90487 3515 ft 176 kts 85°
2026-04-13 17:41 -15.86130 -47.89191 4298 ft 179 kts 88°
2026-04-13 17:41 -15.86051 -47.87927 4934 ft 177 kts 86°
2026-04-13 17:41 -15.85754 -47.86669 5332 ft 187 kts 56°
2026-04-13 17:41 -15.84620 -47.85903 5494 ft 212 kts 11°
2026-04-13 17:42 -15.83119 -47.86187 5654 ft 237 kts 331°
2026-04-13 17:42 -15.81726 -47.87262 5873 ft 262 kts 320°
2026-04-13 17:42 -15.80323 -47.88588 6291 ft 280 kts 317°
2026-04-13 17:42 -15.78922 -47.89991 6946 ft 286 kts 316°
2026-04-13 17:43 -15.77487 -47.91431 7679 ft 289 kts 317°
2026-04-13 17:43 -15.76023 -47.92878 8423 ft 291 kts 317°
2026-04-13 17:43 -15.74540 -47.94321 9191 ft 294 kts 317°
2026-04-13 17:43 -15.73029 -47.95772 9926 ft 297 kts 318°
2026-04-13 17:44 -15.71484 -47.97246 10367 ft 311 kts 317°
2026-04-13 17:44 -15.69827 -47.98821 10523 ft 334 kts 317°
2026-04-13 17:44 -15.68054 -48.00503 10638 ft 357 kts 317°
2026-04-13 17:44 -15.66173 -48.02280 10904 ft 372 kts 317°
2026-04-13 17:45 -15.64245 -48.04098 11411 ft 378 kts 317°
2026-04-13 17:45 -15.62284 -48.05949 11921 ft 384 kts 317°
2026-04-13 17:45 -15.60297 -48.07830 12463 ft 389 kts 317°
2026-04-13 17:45 -15.58292 -48.09730 13073 ft 391 kts 316°
2026-04-13 17:46 -15.56273 -48.11639 13616 ft 395 kts 316°
2026-04-13 17:46 -15.54233 -48.13564 14111 ft 398 kts 316°
2026-04-13 17:46 -15.52175 -48.15504 14597 ft 400 kts 316°
2026-04-13 17:46 -15.50113 -48.17450 15121 ft 402 kts 316°
2026-04-13 17:47 -15.48042 -48.19409 15626 ft 404 kts 316°
2026-04-13 17:47 -15.45962 -48.21376 16114 ft 406 kts 316°
2026-04-13 17:47 -15.43868 -48.23354 16565 ft 408 kts 316°
2026-04-13 17:47 -15.41763 -48.25340 17028 ft 411 kts 316°
2026-04-13 17:48 -15.39641 -48.27341 17466 ft 413 kts 316°
2026-04-13 17:48 -15.37512 -48.29348 17909 ft 415 kts 316°
2026-04-13 17:48 -15.35365 -48.31368 18338 ft 417 kts 317°
2026-04-13 17:48 -15.33212 -48.33395 18720 ft 419 kts 317°
2026-04-13 17:49 -15.31051 -48.35433 19095 ft 421 kts 316°
2026-04-13 17:49 -15.28882 -48.37481 19489 ft 423 kts 316°
2026-04-13 17:49 -15.26702 -48.39538 19855 ft 425 kts 316°
2026-04-13 17:49 -15.24510 -48.41607 20227 ft 427 kts 316°
2026-04-13 17:50 -15.22308 -48.43687 20590 ft 429 kts 316°
2026-04-13 17:50 -15.20095 -48.45773 20988 ft 431 kts 316°
2026-04-13 17:50 -15.17871 -48.47865 21351 ft 433 kts 316°
2026-04-13 17:50 -15.15636 -48.49963 21727 ft 435 kts 316°
2026-04-13 17:51 -15.13389 -48.52072 22104 ft 437 kts 316°
2026-04-13 17:51 -15.11134 -48.54189 22467 ft 439 kts 317°
2026-04-13 17:51 -15.08866 -48.56318 22796 ft 442 kts 316°
2026-04-13 17:51 -15.06584 -48.58458 23114 ft 444 kts 316°
2026-04-13 17:52 -15.04288 -48.60613 23444 ft 447 kts 316°
2026-04-13 17:52 -15.01981 -48.62780 23736 ft 449 kts 316°
2026-04-13 17:52 -14.99667 -48.64952 24035 ft 450 kts 316°
2026-04-13 17:52 -14.97346 -48.67130 24378 ft 450 kts 316°
2026-04-13 17:53 -14.95811 -48.68569 24609 ft 450 kts 316°
2026-04-13 17:53 -14.92697 -48.71487 25020 ft 452 kts 316°
2026-04-13 17:53 -14.90394 -48.73647 25322 ft 454 kts 316°
2026-04-13 17:53 -14.88052 -48.75842 25624 ft 455 kts 316°
2026-04-13 17:54 -14.85705 -48.78040 25932 ft 456 kts 316°
2026-04-13 17:54 -14.83352 -48.80242 26212 ft 457 kts 316°
2026-04-13 17:54 -14.80995 -48.82446 26506 ft 458 kts 316°
2026-04-13 17:54 -14.78631 -48.84659 26772 ft 459 kts 316°
2026-04-13 17:55 -14.76256 -48.86880 27050 ft 461 kts 316°
2026-04-13 17:55 -14.73877 -48.89104 27321 ft 462 kts 316°
2026-04-13 17:55 -14.71493 -48.91332 27594 ft 463 kts 316°
2026-04-13 17:55 -14.69106 -48.93566 27866 ft 464 kts 316°
2026-04-13 17:56 -14.66713 -48.95806 28145 ft 465 kts 316°
2026-04-13 17:56 -14.64319 -48.98044 28522 ft 463 kts 316°
2026-04-13 17:56 -14.61938 -49.00266 28929 ft 461 kts 316°
2026-04-13 17:56 -14.59566 -49.02476 29330 ft 459 kts 315°
2026-04-13 17:57 -14.57205 -49.04679 29724 ft 457 kts 315°
2026-04-13 17:57 -14.54851 -49.06875 30101 ft 455 kts 315°
2026-04-13 17:57 -14.52507 -49.09062 30397 ft 454 kts 315°
2026-04-13 17:57 -14.50167 -49.11245 30684 ft 454 kts 315°
2026-04-13 17:58 -14.47823 -49.13426 30958 ft 454 kts 315°
2026-04-13 17:58 -14.45478 -49.15604 31221 ft 454 kts 315°
2026-04-13 17:58 -14.43137 -49.17785 31484 ft 454 kts 315°
2026-04-13 17:58 -14.40795 -49.19969 31747 ft 454 kts 315°
2026-04-13 17:59 -14.38449 -49.22156 32011 ft 454 kts 315°
2026-04-13 17:59 -14.36106 -49.24339 32280 ft 454 kts 315°
2026-04-13 17:59 -14.33759 -49.26525 32544 ft 455 kts 315°
2026-04-13 17:59 -14.31411 -49.28713 32814 ft 455 kts 315°
2026-04-13 18:00 -14.29060 -49.30900 33073 ft 455 kts 315°
2026-04-13 18:00 -14.26709 -49.33082 33347 ft 455 kts 315°
2026-04-13 18:00 -14.24355 -49.35264 33617 ft 455 kts 315°
2026-04-13 18:00 -14.22001 -49.37449 33857 ft 456 kts 314°
2026-04-13 18:01 -14.19643 -49.39638 33922 ft 456 kts 314°
2026-04-13 18:01 -14.14966 -49.43975 33916 ft 455 kts 314°
2026-04-13 18:02 -14.10266 -49.48333 33917 ft 455 kts 314°
2026-04-13 18:02 -14.05570 -49.52696 33914 ft 455 kts 314°
2026-04-13 18:03 -14.00848 -49.57051 33914 ft 456 kts 315°
2026-04-13 18:03 -13.96047 -49.61340 33904 ft 457 kts 315°
2026-04-13 18:04 -13.91234 -49.65600 33915 ft 456 kts 315°
2026-04-13 18:04 -13.86435 -49.69870 33920 ft 456 kts 315°
2026-04-13 18:05 -13.81647 -49.74148 33927 ft 456 kts 315°
2026-04-13 18:05 -13.76863 -49.78433 33912 ft 456 kts 315°
2026-04-13 18:06 -13.72063 -49.82713 33901 ft 457 kts 315°
2026-04-13 18:06 -13.67261 -49.86989 33908 ft 457 kts 315°
2026-04-13 18:07 -13.62458 -49.91258 33909 ft 456 kts 315°
2026-04-13 18:07 -13.57657 -49.95533 33912 ft 456 kts 315°
2026-04-13 18:08 -13.52862 -49.99809 33906 ft 457 kts 315°
2026-04-13 18:08 -13.48061 -50.04086 33901 ft 457 kts 315°
2026-04-13 18:09 -13.43241 -50.08361 33904 ft 458 kts 315°
2026-04-13 18:09 -13.38408 -50.12635 33906 ft 458 kts 315°
2026-04-13 18:10 -13.33582 -50.16916 33905 ft 458 kts 315°
2026-04-13 18:10 -13.28762 -50.21206 33903 ft 459 kts 315°
2026-04-13 18:11 -13.23967 -50.25461 33902 ft 459 kts 315°
2026-04-13 18:11 -13.19106 -50.29766 33911 ft 458 kts 315°
2026-04-13 18:12 -13.14279 -50.34042 33913 ft 458 kts 315°
2026-04-13 18:12 -13.09458 -50.38315 33915 ft 458 kts 315°
2026-04-13 18:13 -13.04630 -50.42580 33913 ft 458 kts 315°
2026-04-13 18:13 -12.99804 -50.46845 33914 ft 458 kts 315°
2026-04-13 18:14 -12.95010 -50.51082 33911 ft 458 kts 315°
2026-04-13 18:14 -12.90193 -50.55345 33913 ft 457 kts 315°
2026-04-13 18:15 -12.85370 -50.59598 33913 ft 457 kts 315°
2026-04-13 18:15 -12.81328 -50.63156 33913 ft 457 kts 315°
2026-04-13 18:16 -12.76510 -50.67416 33906 ft 457 kts 315°
2026-04-13 18:16 -12.71690 -50.71672 33905 ft 457 kts 315°
2026-04-13 18:17 -12.66868 -50.75920 33902 ft 457 kts 315°
2026-04-13 18:17 -12.62040 -50.80168 33902 ft 458 kts 315°
2026-04-13 18:18 -12.57210 -50.84413 33908 ft 458 kts 315°
2026-04-13 18:18 -12.52384 -50.88660 33904 ft 458 kts 315°
2026-04-13 18:19 -12.47586 -50.92887 33904 ft 458 kts 315°
2026-04-13 18:19 -12.42752 -50.97137 33900 ft 458 kts 316°
2026-04-13 18:20 -12.37906 -51.01385 33908 ft 459 kts 316°
2026-04-13 18:20 -12.33058 -51.05632 33909 ft 459 kts 315°
2026-04-13 18:21 -12.28215 -51.09890 33910 ft 459 kts 316°
2026-04-13 18:21 -12.23373 -51.14149 33909 ft 459 kts 316°
2026-04-13 18:22 -12.18523 -51.18406 33904 ft 460 kts 316°
2026-04-13 18:22 -12.13661 -51.22656 33909 ft 460 kts 316°
2026-04-13 18:23 -12.08797 -51.26902 33910 ft 460 kts 316°
2026-04-13 18:23 -12.03934 -51.31153 33913 ft 460 kts 316°
2026-04-13 18:24 -11.99079 -51.35414 33918 ft 460 kts 316°
2026-04-13 18:24 -11.94218 -51.39673 33915 ft 460 kts 316°
2026-04-13 18:25 -11.89317 -51.43955 33925 ft 469 kts 316°
2026-04-13 18:25 -11.84291 -51.48335 33920 ft 479 kts 316°
2026-04-13 18:26 -11.79251 -51.52731 33910 ft 480 kts 316°
2026-04-13 18:26 -11.74177 -51.57160 33918 ft 480 kts 316°
2026-04-13 18:27 -11.69105 -51.61583 33918 ft 480 kts 316°
2026-04-13 18:27 -11.64035 -51.66007 33925 ft 480 kts 316°
2026-04-13 18:28 -11.58963 -51.70430 33922 ft 480 kts 316°
2026-04-13 18:28 -11.53890 -51.74846 33911 ft 480 kts 316°
2026-04-13 18:29 -11.48807 -51.79261 33909 ft 480 kts 317°
2026-04-13 18:29 -11.43725 -51.83687 33914 ft 481 kts 316°
2026-04-13 18:30 -11.38640 -51.88119 33920 ft 481 kts 316°
2026-04-13 18:30 -11.33542 -51.92540 33923 ft 481 kts 316°
2026-04-13 18:31 -11.28444 -51.96962 33912 ft 481 kts 316°
2026-04-13 18:31 -11.23314 -52.01371 33912 ft 483 kts 317°
2026-04-13 18:32 -11.18133 -52.05744 33913 ft 483 kts 317°
2026-04-13 18:32 -11.12960 -52.10106 33919 ft 483 kts 317°
2026-04-13 18:33 -11.07797 -52.14486 33915 ft 483 kts 317°
2026-04-13 18:33 -11.02641 -52.18862 33918 ft 483 kts 317°
2026-04-13 18:34 -10.94924 -52.25404 33922 ft 484 kts 317°
2026-04-13 18:34 -10.89751 -52.29782 33918 ft 484 kts 317°
2026-04-13 18:35 -10.84568 -52.34156 33913 ft 484 kts 317°
2026-04-13 18:35 -10.79385 -52.38536 33915 ft 484 kts 317°
2026-04-13 18:36 -10.74203 -52.42913 33905 ft 484 kts 318°
2026-04-13 18:36 -10.69018 -52.47286 33908 ft 484 kts 318°
2026-04-13 18:37 -10.63840 -52.51663 33908 ft 484 kts 317°
2026-04-13 18:37 -10.58661 -52.56046 33906 ft 485 kts 317°
2026-04-13 18:38 -10.53477 -52.60425 33906 ft 485 kts 317°
2026-04-13 18:38 -10.48284 -52.64798 33905 ft 485 kts 318°
2026-04-13 18:39 -10.43093 -52.69169 33905 ft 485 kts 318°
2026-04-13 18:39 -10.37901 -52.73542 33907 ft 485 kts 318°
2026-04-13 18:40 -10.32706 -52.77913 33902 ft 485 kts 318°
2026-04-13 18:40 -10.27512 -52.82287 33900 ft 485 kts 318°
2026-04-13 18:41 -10.22311 -52.86666 33891 ft 486 kts 318°
2026-04-13 18:41 -10.17104 -52.91043 33894 ft 486 kts 318°
2026-04-13 18:42 -10.11892 -52.95418 33895 ft 486 kts 318°
2026-04-13 18:42 -10.06692 -52.99792 33890 ft 486 kts 318°
2026-04-13 18:43 -10.01483 -53.04170 33888 ft 486 kts 318°
2026-04-13 18:43 -9.96307 -53.08519 33885 ft 486 kts 319°
2026-04-13 18:44 -9.91099 -53.12894 33887 ft 486 kts 318°
2026-04-13 18:44 -9.86017 -53.17397 33890 ft 485 kts 315°
2026-04-13 18:45 -9.81089 -53.22067 33890 ft 485 kts 315°
2026-04-13 18:45 -9.76172 -53.26754 33884 ft 485 kts 315°
2026-04-13 18:46 -9.71203 -53.31391 33885 ft 486 kts 316°
2026-04-13 18:46 -9.66206 -53.36000 33882 ft 486 kts 316°
2026-04-13 18:47 -9.61214 -53.40619 33886 ft 486 kts 316°
2026-04-13 18:47 -9.56237 -53.45247 33890 ft 486 kts 316°
2026-04-13 18:48 -9.51253 -53.49873 33893 ft 486 kts 316°
2026-04-13 18:48 -9.46269 -53.54493 33893 ft 486 kts 316°
2026-04-13 18:49 -9.41287 -53.59118 33890 ft 486 kts 316°
2026-04-13 18:49 -9.36306 -53.63743 33891 ft 486 kts 316°
2026-04-13 18:50 -9.31319 -53.68355 33889 ft 486 kts 316°
2026-04-13 18:50 -9.26328 -53.72964 33889 ft 486 kts 316°
2026-04-13 18:51 -9.21343 -53.77581 33883 ft 486 kts 316°
2026-04-13 18:51 -9.16359 -53.82197 33877 ft 486 kts 316°
2026-04-13 18:52 -9.11363 -53.86822 33871 ft 487 kts 316°
2026-04-13 18:52 -9.06357 -53.91448 33877 ft 488 kts 317°
2026-04-13 18:53 -9.01370 -53.96046 33877 ft 488 kts 316°
2026-04-13 18:53 -8.96356 -54.00680 33874 ft 489 kts 316°
2026-04-13 18:54 -8.91339 -54.05326 33878 ft 489 kts 316°
2026-04-13 18:54 -8.86297 -54.09975 33877 ft 493 kts 316°
2026-04-13 18:55 -8.81222 -54.14648 33875 ft 494 kts 316°
2026-04-13 18:55 -8.76143 -54.19330 33882 ft 494 kts 316°
2026-04-13 18:56 -8.71061 -54.24016 33881 ft 494 kts 316°
2026-04-13 18:56 -8.65981 -54.28697 33893 ft 494 kts 316°
2026-04-13 18:57 -8.60908 -54.33365 33889 ft 493 kts 316°
2026-04-13 18:57 -8.55841 -54.38037 33888 ft 493 kts 316°
2026-04-13 18:58 -8.50776 -54.42703 33887 ft 493 kts 316°
2026-04-13 18:58 -8.45709 -54.47373 33883 ft 493 kts 316°
2026-04-13 18:59 -8.40642 -54.52035 33888 ft 493 kts 316°
2026-04-13 18:59 -8.35567 -54.56687 33889 ft 492 kts 316°
2026-04-13 19:00 -8.30509 -54.61341 33891 ft 492 kts 316°
2026-04-13 19:00 -8.25492 -54.65956 33891 ft 491 kts 316°
2026-04-13 19:01 -8.20439 -54.70598 33887 ft 491 kts 317°
2026-04-13 19:01 -8.15389 -54.75230 33863 ft 490 kts 316°
2026-04-13 19:02 -8.10350 -54.79849 33869 ft 489 kts 316°
2026-04-13 19:02 -8.05320 -54.84465 33863 ft 488 kts 317°
2026-04-13 19:03 -8.00293 -54.89073 33869 ft 488 kts 316°
2026-04-13 19:03 -7.96119 -54.92898 33870 ft 488 kts 317°
2026-04-13 19:04 -7.91095 -54.97503 33866 ft 488 kts 316°
2026-04-13 19:04 -7.86073 -55.02112 33872 ft 488 kts 317°
2026-04-13 19:05 -7.81043 -55.06713 33873 ft 488 kts 316°
2026-04-13 19:05 -7.76012 -55.11315 33866 ft 488 kts 316°
2026-04-13 19:06 -7.70971 -55.15923 33859 ft 489 kts 317°
2026-04-13 19:06 -7.65927 -55.20536 33861 ft 490 kts 316°
2026-04-13 19:07 -7.60885 -55.25153 33866 ft 490 kts 317°
2026-04-13 19:07 -7.55834 -55.29773 33869 ft 491 kts 317°
2026-04-13 19:08 -7.50772 -55.34397 33868 ft 491 kts 317°
2026-04-13 19:08 -7.45700 -55.39034 33872 ft 494 kts 317°
2026-04-13 19:09 -7.40602 -55.43692 33878 ft 495 kts 317°
2026-04-13 19:09 -7.35498 -55.48345 33886 ft 495 kts 317°
2026-04-13 19:10 -7.30396 -55.52997 33883 ft 495 kts 317°
2026-04-13 19:10 -7.25263 -55.57627 33871 ft 496 kts 319°
2026-04-13 19:11 -7.20017 -55.62146 33864 ft 497 kts 319°
2026-04-13 19:11 -7.14764 -55.66592 33872 ft 497 kts 319°
2026-04-13 19:12 -7.09453 -55.71133 33866 ft 498 kts 319°
2026-04-13 19:12 -7.04235 -55.75641 33877 ft 498 kts 319°
2026-04-13 19:13 -6.98987 -55.80175 33872 ft 497 kts 319°
2026-04-13 19:13 -6.93736 -55.84701 33872 ft 497 kts 319°
2026-04-13 19:14 -6.88479 -55.89226 33866 ft 497 kts 319°
2026-04-13 19:14 -6.83220 -55.93752 33872 ft 497 kts 319°
2026-04-13 19:15 -6.77960 -55.98275 33865 ft 497 kts 319°
2026-04-13 19:15 -6.72701 -56.02795 33872 ft 497 kts 319°
2026-04-13 19:16 -6.67436 -56.07315 33876 ft 497 kts 319°
2026-04-13 19:16 -6.62177 -56.11838 33882 ft 497 kts 319°
2026-04-13 19:17 -6.56950 -56.16329 33877 ft 498 kts 319°
2026-04-13 19:17 -6.51687 -56.20853 33877 ft 498 kts 319°
2026-04-13 19:18 -6.46420 -56.25371 33878 ft 498 kts 319°
2026-04-13 19:18 -6.41151 -56.29892 33881 ft 498 kts 319°
2026-04-13 19:19 -6.35886 -56.34415 33883 ft 498 kts 319°
2026-04-13 19:19 -6.30614 -56.38934 33870 ft 498 kts 319°
2026-04-13 19:20 -6.25335 -56.43465 33866 ft 499 kts 319°
2026-04-13 19:20 -6.20055 -56.47997 33868 ft 499 kts 319°
2026-04-13 19:21 -6.14770 -56.52527 33872 ft 499 kts 319°
2026-04-13 19:21 -6.09479 -56.57052 33870 ft 499 kts 319°
2026-04-13 19:22 -6.04191 -56.61582 33871 ft 499 kts 319°
2026-04-13 19:22 -5.98906 -56.66115 33868 ft 500 kts 319°
2026-04-13 19:23 -5.93619 -56.70645 33865 ft 500 kts 319°
2026-04-13 19:23 -5.88326 -56.75172 33862 ft 499 kts 320°
2026-04-13 19:24 -5.83039 -56.79698 33862 ft 499 kts 319°
2026-04-13 19:24 -5.77749 -56.84219 33866 ft 499 kts 320°
2026-04-13 19:25 -5.72263 -56.88486 33858 ft 499 kts 333°
2026-04-13 19:25 -5.69046 -56.89764 33860 ft 498 kts 347°
2026-04-13 19:25 -5.65628 -56.90223 33860 ft 496 kts
2026-04-13 19:26 -5.62220 -56.89845 33861 ft 493 kts 15°
2026-04-13 19:26 -5.59018 -56.88667 33859 ft 490 kts 29°
2026-04-13 19:26 -5.56244 -56.86798 33853 ft 486 kts 43°
2026-04-13 19:26 -5.53986 -56.84296 33848 ft 483 kts 57°
2026-04-13 19:27 -5.52414 -56.81338 33844 ft 480 kts 71°
2026-04-13 19:27 -5.51610 -56.78107 33840 ft 478 kts 85°
2026-04-13 19:27 -5.51631 -56.74784 33862 ft 477 kts 99°
2026-04-13 19:27 -5.52463 -56.71567 33860 ft 477 kts 113°
2026-04-13 19:28 -5.54045 -56.68654 33859 ft 477 kts 127°
2026-04-13 19:28 -5.56284 -56.66204 33859 ft 477 kts 140°
2026-04-13 19:28 -5.59052 -56.64372 33860 ft 478 kts 154°
2026-04-13 19:28 -5.62195 -56.63286 33863 ft 480 kts 168°
2026-04-13 19:29 -5.65519 -56.63008 33862 ft 482 kts 182°
2026-04-13 19:29 -5.68824 -56.63552 33863 ft 484 kts 196°
2026-04-13 19:29 -5.71911 -56.64898 33862 ft 487 kts 210°
2026-04-13 19:29 -5.74580 -56.66987 33861 ft 488 kts 225°
2026-04-13 19:30 -5.76641 -56.69691 33863 ft 490 kts 240°
2026-04-13 19:30 -5.77967 -56.72842 33862 ft 492 kts 254°
2026-04-13 19:30 -5.78470 -56.76240 33863 ft 494 kts 269°
2026-04-13 19:30 -5.78105 -56.79669 33861 ft 496 kts 284°
2026-04-13 19:31 -5.76893 -56.82898 33856 ft 496 kts 297°
2026-04-13 19:31 -5.75249 -56.85945 33852 ft 497 kts 298°
2026-04-13 19:31 -5.71948 -56.92047 33842 ft 498 kts 298°
2026-04-13 19:32 -5.68697 -56.98196 33844 ft 499 kts 297°
2026-04-13 19:32 -5.65455 -57.04362 33847 ft 500 kts 297°
2026-04-13 19:33 -5.62191 -57.10523 33849 ft 500 kts 297°
2026-04-13 19:34 -5.57286 -57.19770 33867 ft 500 kts 297°
2026-04-13 19:34 -5.54009 -57.25923 33872 ft 500 kts 297°
2026-04-13 19:35 -5.50716 -57.32063 33874 ft 500 kts 297°
2026-04-13 19:35 -5.47441 -57.38214 33872 ft 499 kts 297°
2026-04-13 19:36 -5.44205 -57.44378 33879 ft 499 kts 297°
2026-04-13 19:36 -5.40961 -57.50525 33880 ft 498 kts 297°
2026-04-13 19:37 -5.37692 -57.56656 33875 ft 498 kts 297°
2026-04-13 19:37 -5.34423 -57.62781 33875 ft 498 kts 297°
2026-04-13 19:38 -5.31177 -57.68870 33876 ft 498 kts 297°
2026-04-13 19:38 -5.27927 -57.75000 33878 ft 498 kts 297°
2026-04-13 19:39 -5.24669 -57.81128 33878 ft 498 kts 297°
2026-04-13 19:39 -5.21412 -57.87252 33874 ft 498 kts 297°
2026-04-13 19:40 -5.18157 -57.93381 33872 ft 498 kts 297°
2026-04-13 19:40 -5.14901 -57.99505 33869 ft 498 kts 297°
2026-04-13 19:41 -5.11639 -58.05628 33869 ft 498 kts 297°
2026-04-13 19:41 -5.08364 -58.11746 33862 ft 497 kts 297°
2026-04-13 19:42 -5.03467 -58.20918 33857 ft 497 kts 297°
2026-04-13 19:42 -5.00208 -58.27043 33857 ft 498 kts 297°
2026-04-13 19:43 -4.96942 -58.33167 33857 ft 498 kts 297°
2026-04-13 19:43 -4.93673 -58.39297 33857 ft 498 kts 297°
2026-04-13 19:44 -4.90425 -58.45391 33857 ft 499 kts 297°
2026-04-13 19:44 -4.87151 -58.51525 33854 ft 499 kts 297°
2026-04-13 19:45 -4.83878 -58.57657 33855 ft 499 kts 297°
2026-04-13 19:45 -4.80601 -58.63787 33854 ft 499 kts 297°
2026-04-13 19:46 -4.77324 -58.69914 33854 ft 499 kts 297°
2026-04-13 19:46 -4.74048 -58.76038 33851 ft 498 kts 297°
2026-04-13 19:47 -4.70775 -58.82164 33848 ft 499 kts 297°
2026-04-13 19:47 -4.67500 -58.88296 33853 ft 499 kts 297°
2026-04-13 19:48 -4.64218 -58.94422 33853 ft 499 kts 297°
2026-04-13 19:48 -4.60937 -59.00556 33857 ft 499 kts 297°
2026-04-13 19:49 -4.57658 -59.06693 33864 ft 499 kts 297°
2026-04-13 19:49 -4.54372 -59.12827 33858 ft 500 kts 298°
2026-04-13 19:50 -4.51081 -59.18973 33854 ft 500 kts 298°
2026-04-13 19:50 -4.48349 -59.24080 33854 ft 500 kts 298°
2026-04-13 19:51 -4.45056 -59.30231 33852 ft 501 kts 298°
2026-04-13 19:51 -4.41765 -59.36376 33852 ft 500 kts 298°
2026-04-13 19:52 -4.38476 -59.42517 33853 ft 500 kts 298°
2026-04-13 19:52 -4.35182 -59.48656 33858 ft 501 kts 298°
2026-04-13 19:53 -4.31881 -59.54802 33863 ft 501 kts 298°
2026-04-13 19:53 -4.28602 -59.60915 33323 ft 492 kts 298°
2026-04-13 19:54 -4.26981 -59.63936 32447 ft 493 kts 298°
2026-04-13 19:54 -4.25354 -59.66976 31504 ft 497 kts 298°
2026-04-13 19:54 -4.23719 -59.70035 30586 ft 500 kts 298°
2026-04-13 19:54 -4.22083 -59.73095 29286 ft 497 kts 298°
2026-04-13 19:55 -4.20429 -59.76182 27797 ft 508 kts 298°
2026-04-13 19:55 -4.18764 -59.79280 26461 ft 502 kts 298°
2026-04-13 19:55 -4.17128 -59.82322 25568 ft 487 kts 299°
2026-04-13 19:55 -4.15551 -59.85255 24806 ft 470 kts 299°
2026-04-13 19:56 -4.14026 -59.88098 24047 ft 457 kts 299°
2026-04-13 19:56 -4.12460 -59.90808 23297 ft 443 kts 306°
2026-04-13 19:56 -4.10523 -59.93157 22554 ft 435 kts 317°
2026-04-13 19:56 -4.08232 -59.95097 21915 ft 429 kts 327°
2026-04-13 19:57 -4.05683 -59.96592 21281 ft 422 kts 337°
2026-04-13 19:57 -4.02943 -59.97632 20665 ft 420 kts 345°
2026-04-13 19:57 -4.00186 -59.98456 20070 ft 418 kts 345°
2026-04-13 19:57 -3.97403 -59.99288 19481 ft 417 kts 345°
2026-04-13 19:58 -3.94628 -60.00115 18907 ft 415 kts 345°
2026-04-13 19:58 -3.91866 -60.00939 18368 ft 413 kts 345°
2026-04-13 19:58 -3.89118 -60.01762 17779 ft 411 kts 345°
2026-04-13 19:58 -3.86392 -60.02580 17251 ft 407 kts 345°
2026-04-13 19:59 -3.83692 -60.03388 16740 ft 403 kts 345°
2026-04-13 19:59 -3.81024 -60.04186 16237 ft 399 kts 345°
2026-04-13 19:59 -3.78376 -60.04979 15735 ft 396 kts 345°
2026-04-13 19:59 -3.75742 -60.05769 15220 ft 394 kts 345°
2026-04-13 20:00 -3.73128 -60.06556 14701 ft 392 kts 345°
2026-04-13 20:00 -3.70520 -60.07342 14161 ft 390 kts 345°
2026-04-13 20:00 -3.67924 -60.08122 13603 ft 390 kts 345°
2026-04-13 20:00 -3.65331 -60.08898 12999 ft 388 kts 345°
2026-04-13 20:01 -3.62752 -60.09669 12399 ft 386 kts 345°
2026-04-13 20:01 -3.60187 -60.10435 11803 ft 384 kts 345°
2026-04-13 20:01 -3.57633 -60.11200 11188 ft 382 kts 345°
2026-04-13 20:01 -3.55092 -60.11959 10744 ft 376 kts 345°
2026-04-13 20:02 -3.52640 -60.12692 10635 ft 360 kts 345°
2026-04-13 20:02 -3.50290 -60.13396 10511 ft 345 kts 345°
2026-04-13 20:02 -3.48034 -60.14072 10393 ft 332 kts 345°
2026-04-13 20:02 -3.45863 -60.14722 10272 ft 320 kts 345°
2026-04-13 20:03 -3.43772 -60.15349 10158 ft 308 kts 345°
2026-04-13 20:03 -3.41745 -60.15953 9954 ft 301 kts 345°
2026-04-13 20:03 -3.39759 -60.16546 9851 ft 297 kts 345°
2026-04-13 20:03 -3.37773 -60.17136 9496 ft 299 kts 345°
2026-04-13 20:04 -3.35781 -60.17728 9128 ft 297 kts 345°
2026-04-13 20:04 -3.33804 -60.18318 8718 ft 296 kts 345°
2026-04-13 20:04 -3.31840 -60.18905 8324 ft 294 kts 345°
2026-04-13 20:04 -3.29891 -60.19487 7962 ft 291 kts 345°
2026-04-13 20:05 -3.27960 -60.20063 7504 ft 286 kts 345°
2026-04-13 20:05 -3.26075 -60.20626 7155 ft 278 kts 345°
2026-04-13 20:05 -3.24253 -60.21133 6864 ft 266 kts 352°
2026-04-13 20:05 -3.22500 -60.21422 6735 ft 248 kts 352°
2026-04-13 20:06 -3.20795 -60.21704 6252 ft 248 kts 352°
2026-04-13 20:06 -3.19120 -60.21984 5885 ft 240 kts 352°
2026-04-13 20:06 -3.17501 -60.22256 5596 ft 231 kts 351°
2026-04-13 20:06 -3.15946 -60.22519 5326 ft 223 kts 352°
2026-04-13 20:07 -3.14439 -60.22773 5062 ft 216 kts 353°
2026-04-13 20:07 -3.12972 -60.22867 4851 ft 207 kts
2026-04-13 20:07 -3.11531 -60.22855 4689 ft 207 kts
2026-04-13 20:07 -3.10095 -60.22851 4453 ft 206 kts
2026-04-13 20:08 -3.08667 -60.22849 4209 ft 204 kts
2026-04-13 20:08 -3.07249 -60.22847 3971 ft 204 kts
2026-04-13 20:08 -3.05836 -60.22845 3725 ft 203 kts
2026-04-13 20:08 -3.04447 -60.22843 3484 ft 202 kts
2026-04-13 20:09 -3.03068 -60.22717 3360 ft 198 kts 22°
2026-04-13 20:09 -3.01973 -60.21931 3357 ft 197 kts 54°
2026-04-13 20:09 -3.01496 -60.20658 3367 ft 201 kts 87°
2026-04-13 20:09 -3.01823 -60.19312 3368 ft 204 kts 122°
2026-04-13 20:10 -3.02881 -60.18384 3366 ft 208 kts 156°
2026-04-13 20:10 -3.04314 -60.18184 3373 ft 211 kts 179°
2026-04-13 20:10 -3.05786 -60.18198 3364 ft 212 kts 180°
2026-04-13 20:10 -3.07254 -60.18209 3360 ft 211 kts 179°
2026-04-13 20:11 -3.08720 -60.18218 3359 ft 211 kts 180°
2026-04-13 20:11 -3.10177 -60.18353 3348 ft 211 kts 200°
2026-04-13 20:11 -3.11328 -60.19226 3370 ft 211 kts 238°
2026-04-13 20:11 -3.11737 -60.20605 3362 ft 209 kts 275°
2026-04-13 20:12 -3.11266 -60.21948 3359 ft 206 kts 311°
2026-04-13 20:12 -3.10128 -60.22755 3368 ft 201 kts 346°
2026-04-13 20:12 -3.08747 -60.22866 3371 ft 201 kts
2026-04-13 20:12 -3.07346 -60.22857 3366 ft 201 kts
2026-04-13 20:13 -3.05950 -60.22852 3372 ft 200 kts
2026-04-13 20:13 -3.04589 -60.22634 3165 ft 201 kts 29°
2026-04-13 20:13 -3.03659 -60.21648 3044 ft 199 kts 70°
2026-04-13 20:13 -3.03649 -60.20317 2904 ft 189 kts 101°
2026-04-13 20:14 -3.03820 -60.19076 2687 ft 173 kts 90°
2026-04-13 20:14 -3.03830 -60.17918 2463 ft 161 kts 88°
2026-04-13 20:14 -3.03833 -60.16824 2263 ft 154 kts 87°
2026-04-13 20:14 -3.03834 -60.15727 2073 ft 164 kts 87°
2026-04-13 20:15 -3.03836 -60.14520 1831 ft 184 kts 89°
2026-04-13 20:15 -3.03840 -60.13215 1582 ft 186 kts 89°
2026-04-13 20:15 -3.03842 -60.11943 1400 ft 177 kts 89°
2026-04-13 20:15 -3.03839 -60.10764 1317 ft 159 kts 90°
2026-04-13 20:16 -3.03862 -60.09706 1143 ft 147 kts 91°
2026-04-13 20:16 -3.03923 -60.08696 882 ft 144 kts 93°
2026-04-13 20:16 -3.03969 -60.07702 662 ft 138 kts 84°
2026-04-13 20:16 -3.03871 -60.06748 492 ft 138 kts 82°
2026-04-13 20:17 -3.03858 -60.05791 345 ft 141 kts 89°
2026-04-13 20:17 -3.03865 -60.04742 808 ft 152 kts 89°
2026-04-13 20:17 -3.03880 -60.03688 1242 ft 152 kts 89°
2026-04-13 20:17 -3.03894 -60.02635 1661 ft 152 kts 89°
2026-04-13 20:18 -3.03944 -60.01565 1945 ft 163 kts 100°
2026-04-13 20:18 -3.04612 -60.00603 2163 ft 181 kts 147°
2026-04-13 20:18 -3.05845 -60.00407 2630 ft 188 kts 195°
2026-04-13 20:18 -3.06843 -60.01212 3089 ft 191 kts 245°
2026-04-13 20:19 -3.06987 -60.02502 3549 ft 189 kts 278°
2026-04-13 20:19 -3.06804 -60.03809 3943 ft 192 kts 280°
2026-04-13 20:19 -3.06578 -60.05154 4007 ft 206 kts 281°
2026-04-13 20:19 -3.06326 -60.06628 3990 ft 220 kts 281°
2026-04-13 20:20 -3.06075 -60.08150 4002 ft 223 kts 280°
2026-04-13 20:20 -3.05836 -60.09681 4006 ft 223 kts 277°
2026-04-13 20:20 -3.05887 -60.11232 3988 ft 224 kts 263°
2026-04-13 20:20 -3.06119 -60.12762 3648 ft 222 kts 261°
2026-04-13 20:21 -3.06375 -60.14281 3379 ft 221 kts 261°
2026-04-13 20:21 -3.06628 -60.15768 3242 ft 219 kts 262°
2026-04-13 20:21 -3.06899 -60.17260 3113 ft 216 kts 261°
2026-04-13 20:21 -3.07174 -60.18752 3019 ft 219 kts 261°
2026-04-13 20:22 -3.07444 -60.20251 3007 ft 220 kts 260°
2026-04-13 20:22 -3.07722 -60.21758 3009 ft 221 kts 261°
2026-04-13 20:22 -3.08005 -60.23267 3009 ft 221 kts 261°
2026-04-13 20:22 -3.08280 -60.24776 3010 ft 222 kts 261°
2026-04-13 20:23 -3.08487 -60.26299 3007 ft 220 kts 274°
2026-04-13 20:23 -3.08116 -60.27758 3009 ft 217 kts 302°
2026-04-13 20:23 -3.07116 -60.28846 3010 ft 212 kts 330°
2026-04-13 20:23 -3.05736 -60.29268 3006 ft 208 kts
2026-04-13 20:24 -3.04443 -60.28731 3014 ft 206 kts 45°
2026-04-13 20:24 -3.03816 -60.27494 3029 ft 198 kts 83°
2026-04-13 20:24 -3.03804 -60.26133 3028 ft 194 kts 88°
2026-04-13 20:24 -3.03812 -60.24799 3011 ft 190 kts 89°
2026-04-13 20:25 -3.03817 -60.23481 3002 ft 189 kts 88°
2026-04-13 20:25 -3.03820 -60.22163 3005 ft 189 kts 88°
2026-04-13 20:25 -3.03823 -60.20845 2931 ft 190 kts 89°
2026-04-13 20:25 -3.03826 -60.19525 2741 ft 190 kts 88°
2026-04-13 20:26 -3.03829 -60.18209 2530 ft 188 kts 87°
2026-04-13 20:26 -3.03832 -60.16893 2284 ft 190 kts 87°
2026-04-13 20:26 -3.03835 -60.15566 2026 ft 191 kts 89°
2026-04-13 20:26 -3.03838 -60.14241 1815 ft 189 kts 88°
2026-04-13 20:27 -3.03842 -60.12951 1637 ft 182 kts 89°
2026-04-13 20:27 -3.03845 -60.11728 1449 ft 168 kts 89°
2026-04-13 20:27 -3.03847 -60.10625 1283 ft 151 kts 89°
2026-04-13 20:27 -3.03849 -60.09605 1093 ft 145 kts 90°
2026-04-13 20:28 -3.03851 -60.08609 863 ft 142 kts 89°
2026-04-13 20:28 -3.03853 -60.07609 603 ft 142 kts 87°
2026-04-13 20:28 -3.03853 -60.06623 409 ft 141 kts 88°
2026-04-13 20:28 -3.03849 -60.05676 270 ft 125 kts 92°
2026-04-13 20:29 -3.03857 -60.04974 268 ft 76 kts 90°
2026-04-13 20:29 -3.03860 -60.04554 270 ft 54 kts 90°
2026-04-13 20:29 -3.03864 -60.04201 269 ft 48 kts 91°
2026-04-13 20:29 -3.03862 -60.03952 269 ft 22 kts 88°
2026-04-13 20:30 -3.03849 -60.03812 268 ft 17 kts 70°
2026-04-13 20:30 -3.03753 -60.03771 269 ft 17 kts 343°
2026-04-13 20:30 -3.03678 -60.03863 269 ft 19 kts 287°
2026-04-13 20:30 -3.03643 -60.03995 268 ft 20 kts 285°
2026-04-13 20:31 -3.03604 -60.04135 268 ft 22 kts 286°
2026-04-13 20:31 -3.03543 -60.04273 268 ft 23 kts 307°
2026-04-13 20:31 -3.03413 -60.04363 268 ft 24 kts 340°
2026-04-13 20:31 -3.03320 -60.04368 268 ft 1 kts 27°
2026-04-13 20:32 -3.03317 -60.04366 268 ft 0 kts 28°
2026-04-13 20:32 -3.03309 -60.04363 268 ft 4 kts 22°
2026-04-13 20:32 -3.03287 -60.04363 268 ft 3 kts 351°
2026-04-13 20:32 -3.03253 -60.04370 268 ft 3 kts 346°
2026-04-13 20:33 -3.03243 -60.04373 268 ft 2 kts 346°
2026-04-13 20:33 -3.03242 -60.04373 268 ft 0 kts 346°